powered by Meteolive.it
Dati meteo   Attuali  Passati Ogni 3 ore 7 Giorni 15 Giorni Avvisi Meteo Mappe meteo
Milano / Linate, Italy
Alba: 4:43 AM UTC1
Tramonto: 7:54 PM UTC1
 Lat: 45.42N, Lon: 9.27E
ICAO Usato: LIML
Condizioni Meteo Attuali Aggiornate: 23.05.2017 alle 10:20 LT
Parz Nuvoloso
Parz Nuvoloso
Parz Nuvoloso
N/D
Temp: 20°C
Umidita': 56%
Direz/Vel. Vento: variabile 02 KTS raffiche
Pressione: 1017 hPa
Punto di rugiada: 11°C
Temperatura percepita: 19°C
Visibilitą: >10 KM (ottima)
Temperatura percepita in
presenza di vento (Wind Chill)
:
N/D
T. max (ultime 24 ore): 20°C
T. min (ultime 24 ore): 15°C


METAR ORIGINALE
LIML 230620Z VRB02KT 9999 FEW090 20/11 Q1017 NOSIG